createdAt,value
2023-05-17T00:01:50.434Z,6.50
2023-05-17T00:04:17.015Z,6.40
2023-05-17T00:06:43.795Z,6.40
2023-05-17T00:09:10.425Z,6.30
2023-05-17T00:11:36.990Z,6.30
2023-05-17T00:14:03.649Z,6.20
2023-05-17T00:16:30.268Z,6.20
2023-05-17T00:18:56.929Z,6.10
2023-05-17T00:21:23.635Z,6.20
2023-05-17T00:23:50.201Z,6.10
2023-05-17T00:26:16.840Z,6.00
2023-05-17T00:28:43.389Z,6.00
2023-05-17T00:31:10.050Z,6.00
2023-05-17T00:33:36.658Z,5.90
2023-05-17T00:36:03.643Z,5.90
2023-05-17T00:38:30.193Z,5.80
2023-05-17T00:40:56.752Z,5.70
2023-05-17T00:43:23.302Z,5.70
2023-05-17T00:45:50.310Z,5.70
2023-05-17T00:48:17.156Z,5.70
2023-05-17T00:50:43.858Z,5.70
2023-05-17T00:53:16.809Z,5.70
2023-05-17T00:55:47.327Z,5.80
2023-05-17T00:58:15.315Z,5.80
2023-05-17T01:00:42.658Z,5.90
2023-05-17T01:03:09.307Z,5.90
2023-05-17T01:05:36.720Z,5.80
2023-05-17T01:08:03.272Z,5.80
2023-05-17T01:10:38.063Z,5.70
2023-05-17T01:13:13.686Z,5.70
2023-05-17T01:15:45.653Z,5.60
2023-05-17T01:18:23.851Z,5.50
2023-05-17T01:20:51.604Z,5.50
2023-05-17T01:23:27.280Z,5.40
2023-05-17T01:26:12.619Z,5.40
2023-05-17T01:28:40.480Z,5.40
2023-05-17T01:31:08.253Z,5.30
2023-05-17T01:33:35.745Z,5.30
2023-05-17T01:36:02.357Z,5.20
2023-05-17T01:38:28.920Z,5.20
2023-05-17T01:41:00.898Z,5.10
2023-05-17T01:43:33.611Z,5.10
2023-05-17T01:46:04.941Z,5.10
2023-05-17T01:48:33.603Z,5.10
2023-05-17T01:51:00.899Z,5.00
2023-05-17T01:53:30.059Z,5.00
2023-05-17T01:56:02.188Z,4.90
2023-05-17T01:58:29.450Z,4.90
2023-05-17T02:00:56.628Z,4.90
2023-05-17T02:03:23.328Z,4.80
2023-05-17T02:05:50.094Z,4.80
2023-05-17T02:08:16.671Z,4.80
2023-05-17T02:10:43.294Z,4.90
2023-05-17T02:13:09.863Z,4.80
2023-05-17T02:15:36.433Z,4.80
2023-05-17T02:18:03.096Z,4.70
2023-05-17T02:20:29.743Z,4.70
2023-05-17T02:22:56.308Z,4.70
2023-05-17T02:25:22.894Z,4.60
2023-05-17T02:27:49.499Z,4.70
2023-05-17T02:30:18.198Z,4.70
2023-05-17T02:32:45.275Z,4.70
2023-05-17T02:35:12.091Z,4.70
2023-05-17T02:37:38.699Z,4.80
2023-05-17T02:40:09.443Z,4.80
2023-05-17T02:42:36.729Z,4.70
2023-05-17T02:45:03.638Z,4.70
2023-05-17T02:47:30.374Z,4.60
2023-05-17T02:49:57.023Z,4.60
2023-05-17T02:52:23.591Z,4.60
2023-05-17T02:54:50.226Z,4.50
2023-05-17T02:57:16.860Z,4.60
2023-05-17T02:59:43.427Z,4.50
2023-05-17T03:02:09.999Z,4.40
2023-05-17T03:04:37.049Z,4.40
2023-05-17T03:07:06.304Z,4.40
2023-05-17T03:09:33.701Z,4.40
2023-05-17T03:12:00.267Z,4.40
2023-05-17T03:14:28.675Z,4.40
2023-05-17T03:16:55.257Z,4.40
2023-05-17T03:19:21.964Z,4.40
2023-05-17T03:21:48.653Z,4.40
2023-05-17T03:24:15.597Z,4.40
2023-05-17T03:26:42.215Z,4.50
2023-05-17T03:29:08.846Z,4.50
2023-05-17T03:31:35.501Z,4.50
2023-05-17T03:34:02.343Z,4.50
2023-05-17T03:36:29.112Z,4.60
2023-05-17T03:38:55.811Z,4.50
2023-05-17T03:41:22.586Z,4.50
2023-05-17T03:43:49.130Z,4.70
2023-05-17T03:46:15.741Z,4.70
2023-05-17T03:48:42.384Z,4.60
2023-05-17T03:51:09.170Z,4.60
2023-05-17T03:53:41.001Z,4.60
2023-05-17T03:56:07.664Z,4.50
2023-05-17T03:58:34.201Z,4.50
2023-05-17T04:01:01.666Z,4.50
2023-05-17T04:03:28.337Z,4.50
2023-05-17T04:06:00.655Z,4.50
2023-05-17T04:08:27.273Z,4.50
2023-05-17T04:10:53.872Z,4.60
2023-05-17T04:13:24.459Z,4.70
2023-05-17T04:15:51.076Z,4.80
2023-05-17T04:18:17.838Z,4.70
2023-05-17T04:20:44.433Z,4.60
2023-05-17T04:23:11.006Z,4.70
2023-05-17T04:25:37.668Z,4.70
2023-05-17T04:28:04.312Z,4.80
2023-05-17T04:30:30.894Z,4.80
2023-05-17T04:32:57.473Z,4.90
2023-05-17T04:35:25.081Z,5.00
2023-05-17T04:37:53.250Z,5.00
2023-05-17T04:40:19.903Z,5.00
2023-05-17T04:42:46.452Z,5.20
2023-05-17T04:45:15.393Z,5.30
2023-05-17T04:47:42.266Z,5.40
2023-05-17T04:50:09.012Z,5.40
2023-05-17T04:52:35.682Z,5.40
2023-05-17T04:55:03.208Z,5.50
2023-05-17T04:57:29.845Z,5.60
2023-05-17T04:59:56.400Z,5.70
2023-05-17T05:02:23.074Z,5.90
2023-05-17T05:04:49.762Z,5.90
2023-05-17T05:07:16.822Z,6.00
2023-05-17T05:09:43.432Z,6.00
2023-05-17T05:12:10.045Z,6.00
2023-05-17T05:14:36.573Z,6.00
2023-05-17T05:17:03.143Z,6.00
2023-05-17T05:19:29.908Z,5.90
2023-05-17T05:21:56.490Z,5.90
2023-05-17T05:24:23.033Z,6.00
2023-05-17T05:26:49.700Z,6.10
2023-05-17T05:29:16.239Z,6.10
2023-05-17T05:31:42.777Z,6.30
2023-05-17T05:34:09.561Z,6.40
2023-05-17T05:36:36.500Z,6.50
2023-05-17T05:39:03.200Z,6.60
2023-05-17T05:41:29.793Z,6.70
2023-05-17T05:43:57.118Z,6.90
2023-05-17T05:46:23.686Z,6.90
2023-05-17T05:48:50.300Z,7.00
2023-05-17T05:51:17.031Z,7.00
2023-05-17T05:53:43.735Z,7.00
2023-05-17T05:56:10.928Z,7.00
2023-05-17T05:58:38.055Z,7.10
2023-05-17T06:01:06.308Z,7.10
2023-05-17T06:03:36.960Z,7.10
2023-05-17T06:06:03.820Z,7.30
2023-05-17T06:08:30.447Z,7.30
2023-05-17T06:10:57.011Z,7.30
2023-05-17T06:13:23.541Z,7.30
2023-05-17T06:15:50.759Z,7.30
2023-05-17T06:18:17.407Z,7.50
2023-05-17T06:20:44.197Z,7.60
2023-05-17T06:23:10.797Z,7.60
2023-05-17T06:25:39.826Z,7.70
2023-05-17T06:28:06.548Z,7.80
2023-05-17T06:30:33.208Z,7.80
2023-05-17T06:33:00.066Z,7.90
2023-05-17T06:35:26.803Z,7.90
2023-05-17T06:37:53.511Z,8.00
2023-05-17T06:40:20.095Z,8.20
2023-05-17T06:42:46.684Z,8.20
2023-05-17T06:45:13.721Z,8.30
2023-05-17T06:47:40.438Z,8.40
2023-05-17T06:50:07.458Z,8.50
2023-05-17T06:52:34.697Z,8.50
2023-05-17T06:55:01.253Z,8.40
2023-05-17T06:57:29.829Z,8.40
2023-05-17T06:59:56.701Z,8.30
2023-05-17T07:02:23.367Z,8.40
2023-05-17T07:04:49.997Z,8.20
2023-05-17T07:07:16.657Z,8.10
2023-05-17T07:09:43.353Z,8.20
2023-05-17T07:12:09.934Z,8.20
2023-05-17T07:14:36.530Z,8.30
2023-05-17T07:17:03.140Z,8.40
2023-05-17T07:19:29.922Z,8.40
2023-05-17T07:21:56.542Z,8.20
2023-05-17T07:24:25.902Z,8.20
2023-05-17T07:26:52.858Z,8.30
2023-05-17T07:29:19.541Z,8.30
2023-05-17T07:31:46.098Z,8.40
2023-05-17T07:34:13.334Z,8.40
2023-05-17T07:36:40.082Z,8.50
2023-05-17T07:39:06.997Z,8.50
2023-05-17T07:41:34.219Z,8.60
2023-05-17T07:44:00.864Z,8.70
2023-05-17T07:46:27.609Z,8.60
2023-05-17T07:48:55.839Z,8.50
2023-05-17T07:51:24.819Z,8.60
2023-05-17T07:53:51.437Z,8.60
2023-05-17T07:56:17.984Z,8.60
2023-05-17T07:58:44.572Z,8.80
2023-05-17T08:01:11.218Z,9.00
2023-05-17T08:03:37.826Z,9.10
2023-05-17T08:06:05.217Z,9.40
2023-05-17T08:08:31.920Z,9.50
2023-05-17T08:10:58.557Z,9.60
2023-05-17T08:13:25.121Z,9.60
2023-05-17T08:15:58.409Z,9.60
2023-05-17T08:18:28.450Z,9.70
2023-05-17T08:20:55.164Z,9.80
2023-05-17T08:23:21.691Z,9.70
2023-05-17T08:25:48.451Z,9.80
2023-05-17T08:28:15.321Z,9.80
2023-05-17T08:30:41.898Z,9.80
2023-05-17T08:33:12.016Z,10.00
2023-05-17T08:35:38.735Z,10.00
2023-05-17T08:38:05.294Z,10.10
2023-05-17T08:40:32.260Z,10.10
2023-05-17T08:42:59.705Z,10.00
2023-05-17T08:45:26.822Z,9.90
2023-05-17T08:47:54.499Z,9.70
2023-05-17T08:50:21.910Z,9.80
2023-05-17T08:52:49.526Z,9.80
2023-05-17T08:55:16.480Z,9.90
2023-05-17T08:57:43.475Z,10.00
2023-05-17T09:00:13.511Z,10.10
2023-05-17T09:02:42.254Z,10.10
2023-05-17T09:05:10.758Z,10.00
2023-05-17T09:07:37.949Z,10.00
2023-05-17T09:10:05.846Z,10.00
2023-05-17T09:12:34.909Z,9.90
2023-05-17T09:15:18.011Z,10.10
2023-05-17T09:17:51.744Z,10.10
2023-05-17T09:20:25.396Z,10.40
2023-05-17T09:22:52.097Z,10.40
2023-05-17T09:25:24.527Z,10.50
2023-05-17T09:27:54.463Z,10.50
2023-05-17T09:30:26.819Z,10.40
2023-05-17T09:32:53.821Z,10.20
2023-05-17T09:35:27.154Z,10.00
2023-05-17T09:37:53.923Z,9.90
2023-05-17T09:40:24.857Z,9.80
2023-05-17T09:42:51.654Z,10.00
2023-05-17T09:45:23.008Z,10.10
2023-05-17T09:47:49.754Z,10.20
2023-05-17T09:50:20.168Z,10.40
2023-05-17T09:52:46.834Z,10.50
2023-05-17T09:55:13.577Z,10.40
2023-05-17T09:57:40.552Z,10.40
2023-05-17T10:00:12.386Z,10.40
2023-05-17T10:02:41.193Z,10.20
2023-05-17T10:05:12.130Z,10.20
2023-05-17T10:07:39.063Z,10.30
2023-05-17T10:10:06.586Z,10.30
2023-05-17T10:12:36.299Z,10.30
2023-05-17T10:15:03.330Z,10.30
2023-05-17T10:17:30.524Z,10.50
2023-05-17T10:19:57.762Z,10.50
2023-05-17T10:22:24.754Z,10.40
2023-05-17T10:24:51.789Z,10.60
2023-05-17T10:27:19.065Z,10.60
2023-05-17T10:29:49.215Z,10.70
2023-05-17T10:32:19.129Z,10.70
2023-05-17T10:34:49.470Z,10.80
2023-05-17T10:37:21.596Z,10.90
2023-05-17T10:39:48.848Z,11.00
2023-05-17T10:42:16.382Z,11.00
2023-05-17T10:44:43.361Z,10.90
2023-05-17T10:47:10.733Z,10.90
2023-05-17T10:49:37.986Z,10.90
2023-05-17T10:52:12.137Z,10.80
2023-05-17T10:54:40.498Z,11.00
2023-05-17T10:57:08.999Z,11.20
2023-05-17T10:59:36.051Z,11.10
2023-05-17T11:04:56.138Z,11.40
2023-05-17T11:07:28.014Z,11.40
2023-05-17T11:10:03.664Z,11.50
2023-05-17T11:12:44.409Z,11.40
2023-05-17T11:15:15.328Z,11.10
2023-05-17T11:17:46.694Z,11.00
2023-05-17T11:20:17.063Z,11.00
2023-05-17T11:22:49.281Z,11.30
2023-05-17T11:25:16.067Z,11.50
2023-05-17T11:27:46.540Z,11.70
2023-05-17T11:30:19.708Z,11.70
2023-05-17T11:32:47.329Z,11.70
2023-05-17T11:35:14.631Z,11.70
2023-05-17T11:37:43.469Z,11.50
2023-05-17T11:40:12.983Z,11.40
2023-05-17T11:42:39.815Z,11.40
2023-05-17T11:45:06.632Z,11.60
2023-05-17T11:47:33.339Z,11.50
2023-05-17T11:50:01.507Z,11.40
2023-05-17T11:52:29.581Z,11.60
2023-05-17T11:54:57.160Z,11.50
2023-05-17T11:57:30.437Z,11.60
2023-05-17T12:00:01.603Z,11.60
2023-05-17T12:02:31.987Z,11.60
2023-05-17T12:04:59.049Z,11.70
2023-05-17T12:07:25.924Z,11.70
2023-05-17T12:09:52.827Z,11.80
2023-05-17T12:12:21.954Z,11.80
2023-05-17T12:14:48.693Z,11.90
2023-05-17T12:17:24.608Z,12.00
2023-05-17T12:19:55.304Z,12.10
2023-05-17T12:22:22.101Z,11.90
2023-05-17T12:24:48.714Z,11.90
2023-05-17T12:27:24.556Z,11.90
2023-05-17T12:29:51.298Z,11.90
2023-05-17T12:32:18.008Z,11.90
2023-05-17T12:34:45.127Z,11.90
2023-05-17T12:37:13.114Z,11.90
2023-05-17T12:39:40.314Z,11.90
2023-05-17T12:42:07.365Z,12.00
2023-05-17T12:44:33.899Z,12.10
2023-05-17T12:47:02.189Z,12.10
2023-05-17T12:49:28.738Z,12.10
2023-05-17T12:51:55.557Z,12.00
2023-05-17T12:54:27.137Z,12.00
2023-05-17T12:56:53.808Z,12.10
2023-05-17T12:59:21.200Z,12.00
2023-05-17T13:01:48.676Z,12.00
2023-05-17T13:04:16.351Z,12.00
2023-05-17T13:06:45.848Z,12.00
2023-05-17T13:09:12.605Z,12.00
2023-05-17T13:11:41.361Z,12.20
2023-05-17T13:14:08.925Z,12.30
2023-05-17T13:16:38.925Z,12.50
2023-05-17T13:19:13.772Z,12.50
2023-05-17T13:21:40.802Z,12.50
2023-05-17T13:24:08.963Z,12.30
2023-05-17T13:26:35.602Z,12.20
2023-05-17T13:29:02.157Z,12.30
2023-05-17T13:31:28.770Z,12.30
2023-05-17T13:33:55.512Z,12.40
2023-05-17T13:36:22.216Z,12.40
2023-05-17T13:38:48.824Z,12.40
2023-05-17T13:41:15.653Z,12.30
2023-05-17T13:43:42.285Z,12.30
2023-05-17T13:46:09.256Z,12.50
2023-05-17T13:48:36.111Z,12.40
2023-05-17T13:51:02.785Z,12.20
2023-05-17T13:53:29.551Z,12.00
2023-05-17T13:55:56.280Z,12.00
2023-05-17T13:58:22.878Z,11.90
2023-05-17T14:00:49.566Z,11.80
2023-05-17T14:03:16.304Z,11.80
2023-05-17T14:05:43.355Z,12.00
2023-05-17T14:08:10.020Z,12.10
2023-05-17T14:10:36.611Z,12.20
2023-05-17T14:13:03.315Z,12.40
2023-05-17T14:15:29.931Z,12.40
2023-05-17T14:17:57.550Z,12.30
2023-05-17T14:20:24.363Z,12.20
2023-05-17T14:22:51.269Z,12.10
2023-05-17T14:25:17.822Z,12.10
2023-05-17T14:27:44.423Z,12.20
2023-05-17T14:30:13.521Z,12.40
2023-05-17T14:32:41.572Z,12.40
2023-05-17T14:35:08.817Z,12.50
2023-05-17T14:37:35.619Z,12.60
2023-05-17T14:40:06.495Z,12.60
2023-05-17T14:42:33.599Z,12.60
2023-05-17T14:45:00.220Z,12.70
2023-05-17T14:47:27.020Z,12.70
2023-05-17T14:49:53.710Z,12.70
2023-05-17T14:52:20.338Z,12.60
2023-05-17T14:54:47.202Z,12.60
2023-05-17T14:57:13.916Z,12.60
2023-05-17T14:59:41.341Z,12.70
2023-05-17T15:02:09.113Z,12.80
2023-05-17T15:04:36.410Z,12.80
2023-05-17T15:07:03.045Z,12.80
2023-05-17T15:09:33.650Z,12.90
2023-05-17T15:12:00.358Z,13.00
2023-05-17T15:14:26.932Z,13.10
2023-05-17T15:16:53.524Z,13.30
2023-05-17T15:19:20.221Z,13.30
2023-05-17T15:21:47.023Z,13.30
2023-05-17T15:24:15.335Z,13.30
2023-05-17T15:26:44.329Z,13.20
2023-05-17T15:29:10.900Z,13.20
2023-05-17T15:31:37.493Z,13.30
2023-05-17T15:34:04.773Z,13.60
2023-05-17T15:36:31.580Z,13.60
2023-05-17T15:38:58.214Z,13.80
2023-05-17T15:41:29.751Z,13.80
2023-05-17T15:43:56.865Z,13.80
2023-05-17T15:46:23.447Z,13.80
2023-05-17T15:48:50.142Z,13.60
2023-05-17T15:51:16.744Z,13.40
2023-05-17T15:53:43.691Z,13.30
2023-05-17T15:56:11.245Z,13.20
2023-05-17T15:58:37.850Z,13.20
2023-05-17T16:01:05.621Z,13.20
2023-05-17T16:03:32.650Z,13.20
2023-05-17T16:05:59.325Z,13.30
2023-05-17T16:08:26.229Z,13.20
2023-05-17T16:10:52.910Z,13.00
2023-05-17T16:13:19.518Z,12.90
2023-05-17T16:15:46.108Z,12.90
2023-05-17T16:18:14.807Z,13.00
2023-05-17T16:20:41.820Z,13.20
2023-05-17T16:23:08.511Z,13.20
2023-05-17T16:25:36.031Z,13.40
2023-05-17T16:28:02.749Z,13.50
2023-05-17T16:30:29.278Z,13.60
2023-05-17T16:32:55.977Z,13.70
2023-05-17T16:35:22.664Z,13.80
2023-05-17T16:37:49.820Z,14.00
2023-05-17T16:40:16.931Z,14.00
2023-05-17T16:42:44.572Z,14.00
2023-05-17T16:45:11.337Z,14.00
2023-05-17T16:47:37.964Z,14.00
2023-05-17T16:50:05.594Z,13.90
2023-05-17T16:52:32.179Z,13.70
2023-05-17T16:55:03.289Z,13.40
2023-05-17T16:57:33.098Z,13.30
2023-05-17T17:00:00.765Z,13.20
2023-05-17T17:02:27.946Z,13.10
2023-05-17T17:04:54.628Z,13.00
2023-05-17T17:07:21.279Z,12.90
2023-05-17T17:09:47.863Z,12.90
2023-05-17T17:12:24.092Z,12.80
2023-05-17T17:14:51.797Z,12.70
2023-05-17T17:17:18.329Z,12.70
2023-05-17T17:19:45.037Z,12.70
2023-05-17T17:22:12.103Z,12.70
2023-05-17T17:24:39.523Z,12.80
2023-05-17T17:27:06.101Z,12.70
2023-05-17T17:29:33.955Z,12.60
2023-05-17T17:32:00.790Z,12.60
2023-05-17T17:34:27.424Z,12.60
2023-05-17T17:36:53.985Z,12.70
2023-05-17T17:39:20.804Z,12.70
2023-05-17T17:41:47.393Z,12.60
2023-05-17T17:44:15.002Z,12.60
2023-05-17T17:46:41.749Z,12.50
2023-05-17T17:49:08.337Z,12.40
2023-05-17T17:51:34.951Z,12.30
2023-05-17T17:54:03.696Z,12.30
2023-05-17T17:56:30.497Z,12.20
2023-05-17T17:58:57.140Z,12.10
2023-05-17T18:01:24.018Z,12.00
2023-05-17T18:03:50.681Z,11.90
2023-05-17T18:06:17.364Z,11.90
2023-05-17T18:08:43.972Z,11.80
2023-05-17T18:11:10.624Z,11.80
2023-05-17T18:13:37.186Z,11.80
2023-05-17T18:16:03.926Z,11.70
2023-05-17T18:18:30.548Z,11.70
2023-05-17T18:20:57.169Z,11.80
2023-05-17T18:23:24.223Z,11.60
2023-05-17T18:25:51.000Z,11.60
2023-05-17T18:28:21.631Z,11.70
2023-05-17T18:30:58.031Z,11.80
2023-05-17T18:33:27.514Z,11.80
2023-05-17T18:35:54.112Z,11.70
2023-05-17T18:38:20.721Z,11.60
2023-05-17T18:40:49.247Z,11.50
2023-05-17T18:43:15.861Z,11.40
2023-05-17T18:45:42.523Z,11.30
2023-05-17T18:48:09.325Z,11.20
2023-05-17T18:50:35.937Z,11.10
2023-05-17T18:53:02.809Z,10.90
2023-05-17T18:55:29.601Z,10.80
2023-05-17T18:57:56.155Z,10.70
2023-05-17T19:00:22.870Z,10.60
2023-05-17T19:02:49.535Z,10.50
2023-05-17T19:05:16.423Z,10.30
2023-05-17T19:07:43.018Z,10.30
2023-05-17T19:10:09.956Z,10.20
2023-05-17T19:12:36.523Z,10.10
2023-05-17T19:15:03.835Z,10.00
2023-05-17T19:17:30.537Z,9.90
2023-05-17T19:19:57.265Z,9.90
2023-05-17T19:22:23.831Z,9.80
2023-05-17T19:24:50.848Z,9.80
2023-05-17T19:27:19.724Z,9.80
2023-05-17T19:29:46.753Z,9.70
2023-05-17T19:32:13.565Z,9.80
2023-05-17T19:34:40.167Z,9.60
2023-05-17T19:37:06.829Z,9.60
2023-05-17T19:39:33.477Z,9.50
2023-05-17T19:42:00.043Z,9.40
2023-05-17T19:44:27.584Z,9.40
2023-05-17T19:46:54.438Z,9.40
2023-05-17T19:49:21.374Z,9.30
2023-05-17T19:51:48.179Z,9.20
2023-05-17T19:54:14.913Z,9.10
2023-05-17T19:56:41.609Z,9.10
2023-05-17T19:59:08.225Z,9.00
2023-05-17T20:01:34.986Z,9.00
2023-05-17T20:04:01.723Z,9.00
2023-05-17T20:06:28.432Z,8.90
2023-05-17T20:08:55.002Z,8.80
2023-05-17T20:11:21.602Z,8.70
2023-05-17T20:13:48.373Z,8.70
2023-05-17T20:16:15.126Z,8.60
2023-05-17T20:18:42.667Z,8.60
2023-05-17T20:21:10.907Z,8.50
2023-05-17T20:23:37.478Z,8.60
2023-05-17T20:26:04.304Z,8.60
2023-05-17T20:28:30.898Z,8.50
2023-05-17T20:30:57.480Z,8.50
2023-05-17T20:33:26.798Z,8.60
2023-05-17T20:35:53.810Z,8.40
2023-05-17T20:38:20.666Z,8.40
2023-05-17T20:40:47.435Z,8.40
2023-05-17T20:43:14.572Z,8.30
2023-05-17T20:45:41.337Z,8.30
2023-05-17T20:48:08.355Z,8.20
2023-05-17T20:50:38.015Z,8.20
2023-05-17T20:53:06.009Z,8.10
2023-05-17T20:55:32.778Z,8.10
2023-05-17T20:57:59.401Z,8.10
2023-05-17T21:00:26.438Z,8.00
2023-05-17T21:02:53.245Z,8.00
2023-05-17T21:05:20.000Z,7.90
2023-05-17T21:07:46.857Z,7.90
2023-05-17T21:10:13.520Z,7.80
2023-05-17T21:12:40.235Z,7.80
2023-05-17T21:17:55.695Z,7.90
2023-05-17T21:20:23.769Z,7.90
2023-05-17T21:22:51.414Z,7.90
2023-05-17T21:25:19.876Z,7.80
2023-05-17T21:27:47.421Z,7.70
2023-05-17T21:30:14.071Z,7.70
2023-05-17T21:32:41.578Z,7.70
2023-05-17T21:35:08.407Z,7.60
2023-05-17T21:37:38.740Z,7.60
2023-05-17T21:40:06.317Z,7.70
2023-05-17T21:42:33.538Z,7.60
2023-05-17T21:45:00.343Z,7.50
2023-05-17T21:47:26.996Z,7.50
2023-05-17T21:49:53.740Z,7.50
2023-05-17T21:52:20.383Z,7.40
2023-05-17T21:54:47.068Z,7.40
2023-05-17T21:57:13.867Z,7.30
2023-05-17T21:59:40.623Z,7.50
2023-05-17T22:02:08.615Z,7.50
2023-05-17T22:04:35.371Z,7.30
2023-05-17T22:07:02.006Z,7.30
2023-05-17T22:09:28.649Z,7.20
2023-05-17T22:11:58.633Z,7.10
2023-05-17T22:14:25.893Z,7.00
2023-05-17T22:16:56.025Z,7.00
2023-05-17T22:19:23.504Z,7.00
2023-05-17T22:21:50.358Z,7.00
2023-05-17T22:24:16.992Z,7.10
2023-05-17T22:26:43.581Z,7.10
2023-05-17T22:29:10.192Z,7.00
2023-05-17T22:31:37.692Z,7.10
2023-05-17T22:34:05.420Z,7.10
2023-05-17T22:36:34.753Z,7.00
2023-05-17T22:39:01.515Z,7.00
2023-05-17T22:41:28.110Z,7.10
2023-05-17T22:43:54.713Z,7.10
2023-05-17T22:46:21.489Z,7.00
2023-05-17T22:48:50.058Z,6.90
2023-05-17T22:51:18.562Z,7.00
2023-05-17T22:53:45.395Z,6.90
2023-05-17T22:56:12.019Z,6.90
2023-05-17T22:58:38.685Z,6.80
2023-05-17T23:01:05.384Z,6.80
2023-05-17T23:03:32.227Z,6.70
2023-05-17T23:06:03.154Z,6.80
2023-05-17T23:08:31.039Z,6.70
2023-05-17T23:10:58.413Z,6.70
2023-05-17T23:13:25.885Z,6.70
2023-05-17T23:15:52.720Z,6.70
2023-05-17T23:18:19.398Z,6.70
2023-05-17T23:20:46.340Z,6.80
2023-05-17T23:23:16.255Z,6.80
2023-05-17T23:25:44.775Z,6.70
2023-05-17T23:28:11.481Z,6.60
2023-05-17T23:30:39.826Z,6.60
2023-05-17T23:33:06.548Z,6.60
2023-05-17T23:35:33.104Z,6.60
2023-05-17T23:37:59.883Z,6.60
2023-05-17T23:40:26.735Z,6.60
2023-05-17T23:42:53.321Z,6.80
2023-05-17T23:45:19.914Z,6.80
2023-05-17T23:47:47.554Z,6.80
2023-05-17T23:50:14.523Z,6.80
2023-05-17T23:52:43.340Z,6.80
2023-05-17T23:55:09.923Z,6.80
2023-05-17T23:57:36.645Z,6.70
